createdAt,value
2022-11-25T00:01:32.075Z,3.87
2022-11-25T00:04:00.938Z,3.85
2022-11-25T00:06:34.713Z,3.84
2022-11-25T00:09:07.608Z,3.83
2022-11-25T00:11:37.484Z,3.80
2022-11-25T00:14:06.811Z,3.77
2022-11-25T00:16:35.019Z,3.79
2022-11-25T00:19:03.784Z,3.79
2022-11-25T00:21:34.224Z,3.82
2022-11-25T00:24:05.647Z,3.84
2022-11-25T00:26:35.624Z,3.89
2022-11-25T00:29:07.036Z,3.92
2022-11-25T00:31:39.336Z,3.90
2022-11-25T00:34:11.751Z,3.88
2022-11-25T00:36:40.143Z,3.95
2022-11-25T00:39:17.613Z,3.98
2022-11-25T00:42:05.874Z,3.94
2022-11-25T00:44:37.559Z,3.95
2022-11-25T00:47:21.022Z,3.96
2022-11-25T00:49:51.956Z,3.96
2022-11-25T00:52:22.270Z,3.93
2022-11-25T00:54:52.539Z,3.96
2022-11-25T00:57:23.455Z,3.96
2022-11-25T00:59:51.753Z,3.93
2022-11-25T01:02:22.337Z,3.92
2022-11-25T01:04:50.558Z,3.90
2022-11-25T01:07:19.155Z,3.87
2022-11-25T01:09:48.130Z,3.89
2022-11-25T01:12:15.901Z,3.88
2022-11-25T01:14:43.740Z,3.87
2022-11-25T01:17:11.645Z,3.91
2022-11-25T01:19:40.734Z,3.89
2022-11-25T01:22:09.406Z,3.90
2022-11-25T01:24:37.791Z,3.91
2022-11-25T01:27:06.061Z,3.91
2022-11-25T01:29:33.980Z,3.92
2022-11-25T01:32:01.858Z,3.94
2022-11-25T01:34:32.507Z,3.96
2022-11-25T01:37:00.527Z,3.98
2022-11-25T01:39:32.373Z,3.96
2022-11-25T01:42:01.859Z,3.93
2022-11-25T01:44:32.079Z,3.93
2022-11-25T01:47:15.309Z,3.92
2022-11-25T01:50:03.725Z,3.89
2022-11-25T01:52:35.717Z,3.90
2022-11-25T01:55:11.553Z,3.92
2022-11-25T01:57:54.180Z,3.94
2022-11-25T02:00:22.286Z,3.93
2022-11-25T02:02:53.322Z,3.89
2022-11-25T02:05:35.598Z,3.89
2022-11-25T02:08:06.203Z,3.93
2022-11-25T02:10:35.938Z,3.94
2022-11-25T02:13:04.316Z,3.95
2022-11-25T02:15:35.376Z,3.98
2022-11-25T02:18:05.664Z,4.02
2022-11-25T02:20:33.838Z,4.01
2022-11-25T02:23:29.167Z,4.02
2022-11-25T02:26:00.765Z,4.05
2022-11-25T02:28:31.215Z,4.04
2022-11-25T02:31:00.087Z,4.06
2022-11-25T02:33:28.821Z,4.08
2022-11-25T02:35:57.510Z,4.12
2022-11-25T02:38:43.597Z,4.10
2022-11-25T02:41:16.825Z,4.07
2022-11-25T02:43:47.316Z,4.04
2022-11-25T02:46:22.226Z,4.01
2022-11-25T02:49:08.431Z,4.04
2022-11-25T02:51:40.569Z,4.02
2022-11-25T02:54:11.119Z,4.01
2022-11-25T02:56:40.452Z,4.01
2022-11-25T02:59:10.460Z,3.98
2022-11-25T03:01:39.635Z,3.97
2022-11-25T03:04:08.859Z,3.91
2022-11-25T03:06:37.230Z,3.93
2022-11-25T03:09:05.368Z,3.94
2022-11-25T03:11:51.905Z,3.93
2022-11-25T03:14:21.409Z,3.91
2022-11-25T03:16:49.537Z,3.93
2022-11-25T03:19:17.559Z,3.94
2022-11-25T03:21:45.565Z,3.92
2022-11-25T03:24:13.348Z,3.94
2022-11-25T03:26:41.829Z,3.92
2022-11-25T03:29:09.859Z,3.93
2022-11-25T03:31:38.953Z,3.96
2022-11-25T03:34:09.566Z,4.05
2022-11-25T03:36:38.152Z,4.04
2022-11-25T03:39:06.931Z,4.01
2022-11-25T03:41:35.375Z,4.04
2022-11-25T03:44:03.483Z,4.08
2022-11-25T03:46:31.555Z,4.11
2022-11-25T03:49:00.753Z,4.11
2022-11-25T03:51:30.462Z,4.11
2022-11-25T03:53:59.863Z,4.10
2022-11-25T03:56:28.343Z,4.05
2022-11-25T03:58:57.950Z,4.02
2022-11-25T04:01:26.459Z,4.02
2022-11-25T04:03:54.810Z,4.05
2022-11-25T04:06:24.031Z,4.03
2022-11-25T04:08:52.798Z,4.02
2022-11-25T04:11:20.766Z,4.02
2022-11-25T04:13:51.190Z,4.03
2022-11-25T04:16:25.318Z,3.98
2022-11-25T04:18:53.886Z,3.90
2022-11-25T04:21:21.764Z,3.90
2022-11-25T04:23:50.023Z,3.89
2022-11-25T04:26:18.097Z,3.87
2022-11-25T04:28:46.374Z,3.82
2022-11-25T04:31:14.933Z,3.84
2022-11-25T04:33:48.340Z,3.90
2022-11-25T04:36:19.804Z,3.86
2022-11-25T04:38:47.981Z,3.82
2022-11-25T04:41:16.385Z,3.86
2022-11-25T04:43:46.569Z,3.85
2022-11-25T04:46:18.060Z,3.86
2022-11-25T04:48:49.932Z,3.86
2022-11-25T04:51:18.189Z,3.87
2022-11-25T04:53:46.696Z,3.88
2022-11-25T04:56:18.932Z,3.87
2022-11-25T04:59:06.552Z,3.85
2022-11-25T05:01:35.518Z,3.80
2022-11-25T05:04:17.087Z,3.78
2022-11-25T05:06:45.121Z,3.73
2022-11-25T05:09:14.289Z,3.68
2022-11-25T05:11:42.626Z,3.69
2022-11-25T05:14:10.595Z,3.68
2022-11-25T05:16:39.240Z,3.66
2022-11-25T05:19:07.751Z,3.63
2022-11-25T05:21:35.689Z,3.63
2022-11-25T05:24:03.821Z,3.66
2022-11-25T05:26:31.981Z,3.69
2022-11-25T05:29:01.317Z,3.69
2022-11-25T05:31:30.657Z,3.65
2022-11-25T05:34:03.206Z,3.64
2022-11-25T05:36:32.539Z,3.64
2022-11-25T05:39:01.702Z,3.65
2022-11-25T05:41:55.435Z,3.62
2022-11-25T05:44:23.721Z,3.60
2022-11-25T05:46:53.409Z,3.61
2022-11-25T05:49:21.984Z,3.57
2022-11-25T05:51:50.654Z,3.52
2022-11-25T05:54:20.355Z,3.51
2022-11-25T05:56:48.198Z,3.46
2022-11-25T05:59:25.011Z,3.45
2022-11-25T06:02:00.796Z,3.43
2022-11-25T06:04:28.931Z,3.40
2022-11-25T06:06:57.020Z,3.40
2022-11-25T06:09:24.854Z,3.43
2022-11-25T06:11:53.377Z,3.45
2022-11-25T06:14:21.198Z,3.44
2022-11-25T06:16:50.000Z,3.43
2022-11-25T06:19:28.469Z,3.42
2022-11-25T06:21:56.435Z,3.43
2022-11-25T06:24:25.784Z,3.44
2022-11-25T06:26:58.139Z,3.45
2022-11-25T06:29:26.090Z,3.48
2022-11-25T06:31:54.149Z,3.51
2022-11-25T06:34:48.180Z,3.53
2022-11-25T06:37:27.212Z,3.54
2022-11-25T06:39:55.173Z,3.54
2022-11-25T06:42:23.047Z,3.55
2022-11-25T06:44:50.986Z,3.54
2022-11-25T06:47:19.309Z,3.56
2022-11-25T06:49:47.179Z,3.55
2022-11-25T06:52:15.028Z,3.53
2022-11-25T06:54:43.272Z,3.51
2022-11-25T06:57:12.761Z,3.52
2022-11-25T06:59:40.781Z,3.51
2022-11-25T07:02:12.507Z,3.53
2022-11-25T07:04:41.029Z,3.54
2022-11-25T07:07:08.880Z,3.58
2022-11-25T07:09:37.108Z,3.62
2022-11-25T07:12:05.951Z,3.66
2022-11-25T07:14:34.173Z,3.70
2022-11-25T07:17:05.095Z,3.74
2022-11-25T07:19:35.799Z,3.79
2022-11-25T07:22:03.711Z,3.82
2022-11-25T07:24:31.700Z,3.84
2022-11-25T07:26:59.625Z,3.92
2022-11-25T07:32:16.268Z,3.99
2022-11-25T07:34:44.248Z,4.01
2022-11-25T07:37:12.328Z,4.02
2022-11-25T07:39:40.271Z,4.05
2022-11-25T07:42:08.595Z,4.05
2022-11-25T07:44:36.709Z,4.03
2022-11-25T07:47:27.413Z,4.06
2022-11-25T07:49:55.357Z,4.10
2022-11-25T07:52:23.854Z,4.17
2022-11-25T07:54:53.314Z,4.28
2022-11-25T07:57:21.423Z,4.34
2022-11-25T07:59:49.321Z,4.36
2022-11-25T08:02:17.194Z,4.39
2022-11-25T08:04:45.106Z,4.46
2022-11-25T08:07:13.258Z,4.52
2022-11-25T08:09:41.321Z,4.59
2022-11-25T08:12:09.251Z,4.65
2022-11-25T08:14:37.319Z,4.69
2022-11-25T08:17:06.188Z,4.75
2022-11-25T08:19:34.257Z,4.77
2022-11-25T08:22:02.254Z,4.81
2022-11-25T08:24:30.026Z,4.86
2022-11-25T08:27:01.344Z,4.89
2022-11-25T08:29:29.210Z,4.91
2022-11-25T08:31:58.490Z,4.93
2022-11-25T08:34:26.566Z,4.97
2022-11-25T08:36:57.274Z,5.02
2022-11-25T08:42:13.229Z,5.07
2022-11-25T08:44:41.180Z,5.05
2022-11-25T08:47:10.080Z,5.01
2022-11-25T08:49:41.265Z,5.00
2022-11-25T08:52:10.443Z,5.05
2022-11-25T08:54:38.693Z,5.03
2022-11-25T08:57:07.288Z,5.00
2022-11-25T08:59:35.724Z,4.99
2022-11-25T09:02:04.593Z,5.00
2022-11-25T09:04:33.916Z,4.97
2022-11-25T09:07:04.388Z,4.98
2022-11-25T09:09:32.444Z,4.99
2022-11-25T09:12:00.421Z,4.99
2022-11-25T09:14:28.476Z,5.00
2022-11-25T09:16:57.175Z,5.03
2022-11-25T09:19:25.250Z,5.05
2022-11-25T09:21:53.500Z,5.08
2022-11-25T09:24:21.599Z,5.07
2022-11-25T09:26:49.565Z,5.09
2022-11-25T09:29:17.495Z,5.07
2022-11-25T09:31:47.832Z,5.10
2022-11-25T09:34:17.971Z,5.12
2022-11-25T09:36:46.205Z,5.18
2022-11-25T09:39:14.036Z,5.22
2022-11-25T09:42:22.733Z,5.21
2022-11-25T09:45:52.022Z,5.19
2022-11-25T09:48:19.969Z,5.21
2022-11-25T09:50:59.382Z,5.29
2022-11-25T09:53:27.173Z,5.32
2022-11-25T09:56:01.880Z,5.31
2022-11-25T09:58:37.253Z,5.34
2022-11-25T10:01:12.706Z,5.39
2022-11-25T10:03:48.465Z,5.44
2022-11-25T10:06:29.934Z,5.44
2022-11-25T10:09:11.344Z,5.43
2022-11-25T10:11:51.236Z,5.47
2022-11-25T10:14:19.355Z,5.50
2022-11-25T10:16:51.586Z,5.53
2022-11-25T10:19:38.423Z,5.58
2022-11-25T10:22:26.198Z,5.60
2022-11-25T10:25:00.166Z,5.63
2022-11-25T10:27:33.045Z,5.63
2022-11-25T10:30:07.534Z,5.60
2022-11-25T10:32:51.231Z,5.58
2022-11-25T10:35:50.432Z,5.63
2022-11-25T10:38:31.466Z,5.62
2022-11-25T10:41:01.281Z,5.64
2022-11-25T10:43:31.897Z,5.70
2022-11-25T10:46:24.558Z,5.81
2022-11-25T10:49:14.265Z,5.91
2022-11-25T10:51:50.426Z,5.93
2022-11-25T10:54:27.273Z,5.91
2022-11-25T10:57:20.407Z,5.88
2022-11-25T10:59:59.695Z,5.89
2022-11-25T11:02:30.199Z,5.92
2022-11-25T11:05:10.392Z,5.96
2022-11-25T11:07:41.466Z,5.99
2022-11-25T11:10:14.836Z,6.04
2022-11-25T11:12:58.223Z,6.10
2022-11-25T11:15:47.096Z,6.13
2022-11-25T11:18:15.108Z,6.15
2022-11-25T11:20:48.887Z,6.16
2022-11-25T11:23:16.851Z,6.19
2022-11-25T11:25:56.359Z,6.21
2022-11-25T11:28:39.334Z,6.22
2022-11-25T11:31:26.475Z,6.24
2022-11-25T11:34:05.854Z,6.24
2022-11-25T11:36:38.517Z,6.27
2022-11-25T11:39:28.905Z,6.27
2022-11-25T11:42:06.035Z,6.29
2022-11-25T11:44:36.770Z,6.27
2022-11-25T11:47:27.490Z,6.25
2022-11-25T11:50:04.244Z,6.23
2022-11-25T11:52:44.365Z,6.21
2022-11-25T11:55:33.258Z,6.20
2022-11-25T11:58:39.334Z,6.16
2022-11-25T12:01:29.406Z,6.14
2022-11-25T12:04:33.343Z,6.19
2022-11-25T12:07:17.789Z,6.19
2022-11-25T12:09:58.118Z,6.18
2022-11-25T12:12:36.351Z,6.16
2022-11-25T12:15:36.411Z,6.19
2022-11-25T12:18:20.030Z,6.18
2022-11-25T12:20:58.001Z,6.25
2022-11-25T12:23:58.553Z,6.34
2022-11-25T12:26:49.405Z,6.36
2022-11-25T12:29:29.244Z,6.40
2022-11-25T12:32:23.334Z,6.45
2022-11-25T12:35:02.111Z,6.45
2022-11-25T12:37:37.551Z,6.48
2022-11-25T12:40:19.290Z,6.46
2022-11-25T12:42:48.981Z,6.48
2022-11-25T12:45:25.843Z,6.54
2022-11-25T12:47:54.237Z,6.55
2022-11-25T12:50:40.556Z,6.54
2022-11-25T12:53:17.263Z,6.51
2022-11-25T12:55:45.591Z,6.48
2022-11-25T12:58:13.776Z,6.47
2022-11-25T13:01:20.702Z,6.45
2022-11-25T13:04:23.490Z,6.40
2022-11-25T13:07:07.617Z,6.33
2022-11-25T13:09:50.654Z,6.29
2022-11-25T13:12:46.704Z,6.26
2022-11-25T13:15:32.406Z,6.20
2022-11-25T13:18:09.414Z,6.16
2022-11-25T13:20:49.984Z,6.11
2022-11-25T13:23:17.814Z,6.08
2022-11-25T13:25:48.232Z,6.05
2022-11-25T13:28:36.878Z,6.02
2022-11-25T13:31:25.770Z,6.00
2022-11-25T13:34:21.532Z,5.97
2022-11-25T13:36:52.385Z,5.93
2022-11-25T13:39:33.920Z,5.92
2022-11-25T13:42:22.432Z,5.91
2022-11-25T13:44:59.086Z,5.90
2022-11-25T13:47:48.146Z,5.89
2022-11-25T13:50:21.806Z,5.89
2022-11-25T13:52:58.941Z,5.86
2022-11-25T13:55:40.184Z,5.85
2022-11-25T13:58:11.003Z,5.85
2022-11-25T14:01:23.612Z,5.86
2022-11-25T14:04:00.377Z,5.85
2022-11-25T14:06:52.637Z,5.85
2022-11-25T14:09:55.003Z,5.85
2022-11-25T14:12:31.234Z,5.83
2022-11-25T14:15:37.983Z,5.83
2022-11-25T14:18:17.767Z,5.83
2022-11-25T14:21:05.868Z,5.83
2022-11-25T14:23:58.084Z,5.82
2022-11-25T14:26:49.335Z,5.79
2022-11-25T14:29:30.671Z,5.79
2022-11-25T14:32:01.356Z,5.79
2022-11-25T14:34:58.637Z,5.77
2022-11-25T14:37:34.905Z,5.74
2022-11-25T14:40:17.086Z,5.72
2022-11-25T14:42:48.433Z,5.68
2022-11-25T14:45:20.456Z,5.65
2022-11-25T14:47:48.505Z,5.63
2022-11-25T14:50:34.278Z,5.60
2022-11-25T14:53:11.385Z,5.56
2022-11-25T14:55:39.303Z,5.53
2022-11-25T14:58:07.243Z,5.51
2022-11-25T15:00:35.347Z,5.48
2022-11-25T15:03:06.896Z,5.45
2022-11-25T15:05:37.589Z,5.41
2022-11-25T15:08:15.961Z,5.38
2022-11-25T15:10:54.943Z,5.34
2022-11-25T15:13:43.903Z,5.31
2022-11-25T15:16:19.311Z,5.27
2022-11-25T15:18:51.629Z,5.24
2022-11-25T15:21:24.843Z,5.19
2022-11-25T15:23:53.378Z,5.16
2022-11-25T15:26:27.271Z,5.13
2022-11-25T15:28:57.338Z,5.09
2022-11-25T15:31:36.505Z,5.04
2022-11-25T15:34:08.285Z,4.99
2022-11-25T15:36:36.563Z,4.94
2022-11-25T15:39:19.765Z,4.88
2022-11-25T15:41:50.326Z,4.84
2022-11-25T15:44:34.026Z,4.79
2022-11-25T15:47:07.928Z,4.75
2022-11-25T15:49:36.198Z,4.72
2022-11-25T15:52:09.374Z,4.70
2022-11-25T15:54:44.651Z,4.65
2022-11-25T15:57:24.867Z,4.59
2022-11-25T15:59:55.817Z,4.56
2022-11-25T16:02:47.001Z,4.51
2022-11-25T16:05:16.348Z,4.46
2022-11-25T16:07:50.658Z,4.40
2022-11-25T16:10:31.665Z,4.35
2022-11-25T16:13:21.873Z,4.32
2022-11-25T16:16:09.619Z,4.29
2022-11-25T16:18:54.781Z,4.22
2022-11-25T16:21:32.876Z,4.15
2022-11-25T16:24:07.213Z,4.09
2022-11-25T16:26:49.063Z,4.03
2022-11-25T16:29:31.959Z,4.00
2022-11-25T16:32:01.014Z,3.97
2022-11-25T16:34:29.836Z,3.95
2022-11-25T16:36:58.302Z,3.92
2022-11-25T16:39:26.165Z,3.88
2022-11-25T16:41:56.812Z,3.82
2022-11-25T16:44:27.512Z,3.75
2022-11-25T16:46:55.782Z,3.68
2022-11-25T16:49:24.198Z,3.66
2022-11-25T16:51:53.191Z,3.67
2022-11-25T16:54:22.581Z,3.66
2022-11-25T16:56:52.963Z,3.56
2022-11-25T16:59:33.013Z,3.51
2022-11-25T17:02:02.332Z,3.47
2022-11-25T17:04:30.427Z,3.44
2022-11-25T17:09:46.959Z,3.40
2022-11-25T17:12:20.508Z,3.40
2022-11-25T17:14:49.226Z,3.40
2022-11-25T17:17:24.741Z,3.38
2022-11-25T17:19:53.933Z,3.34
2022-11-25T17:22:24.923Z,3.31
2022-11-25T17:24:53.825Z,3.29
2022-11-25T17:27:31.092Z,3.26
2022-11-25T17:30:01.716Z,3.24
2022-11-25T17:32:30.971Z,3.22
2022-11-25T17:34:59.570Z,3.17
2022-11-25T17:37:28.781Z,3.16
2022-11-25T17:39:56.882Z,3.18
2022-11-25T17:42:31.469Z,3.16
2022-11-25T17:45:00.505Z,3.16
2022-11-25T17:47:28.651Z,3.15
2022-11-25T17:49:57.886Z,3.11
2022-11-25T17:52:25.795Z,3.05
2022-11-25T17:54:53.761Z,2.98
2022-11-25T17:57:22.704Z,2.90
2022-11-25T17:59:50.676Z,2.92
2022-11-25T18:02:22.243Z,2.88
2022-11-25T18:04:50.775Z,2.82
2022-11-25T18:07:19.134Z,2.74
2022-11-25T18:09:47.156Z,2.69
2022-11-25T18:12:30.831Z,2.67
2022-11-25T18:14:58.874Z,2.62
2022-11-25T18:17:26.733Z,2.60
2022-11-25T18:19:55.634Z,2.59
2022-11-25T18:22:24.323Z,2.53
2022-11-25T18:24:53.803Z,2.44
2022-11-25T18:27:27.623Z,2.39
2022-11-25T18:29:57.289Z,2.33
2022-11-25T18:32:25.555Z,2.32
2022-11-25T18:34:53.806Z,2.31
2022-11-25T18:37:21.779Z,2.34
2022-11-25T18:39:49.728Z,2.32
2022-11-25T18:42:27.464Z,2.34
2022-11-25T18:44:56.499Z,2.30
2022-11-25T18:47:24.503Z,2.30
2022-11-25T18:49:55.805Z,2.31
2022-11-25T18:52:25.177Z,2.31
2022-11-25T18:54:53.197Z,2.33
2022-11-25T18:57:21.187Z,2.34
2022-11-25T19:00:10.286Z,2.36
2022-11-25T19:02:37.374Z,2.39
2022-11-25T19:05:18.009Z,2.45
2022-11-25T19:07:48.051Z,2.45
2022-11-25T19:10:17.351Z,2.42
2022-11-25T19:12:49.894Z,2.40
2022-11-25T19:15:21.467Z,2.35
2022-11-25T19:17:55.767Z,2.36
2022-11-25T19:20:25.065Z,2.38
2022-11-25T19:22:56.669Z,2.41
2022-11-25T19:25:29.445Z,2.47
2022-11-25T19:27:59.651Z,2.44
2022-11-25T19:30:31.988Z,2.44
2022-11-25T19:33:02.036Z,2.47
2022-11-25T19:35:35.581Z,2.49
2022-11-25T19:38:16.456Z,2.48
2022-11-25T19:40:44.813Z,2.47
2022-11-25T19:43:12.691Z,2.52
2022-11-25T19:45:41.079Z,2.50
2022-11-25T19:48:14.717Z,2.45
2022-11-25T19:50:45.207Z,2.44
2022-11-25T19:53:22.049Z,2.42
2022-11-25T19:55:50.111Z,2.35
2022-11-25T19:58:18.015Z,2.33
2022-11-25T20:00:47.813Z,2.40
2022-11-25T20:03:24.653Z,2.43
2022-11-25T20:05:54.516Z,2.39
2022-11-25T20:08:25.800Z,2.36
2022-11-25T20:10:54.857Z,2.31
2022-11-25T20:13:24.480Z,2.29
2022-11-25T20:15:55.633Z,2.27
2022-11-25T20:18:24.302Z,2.24
2022-11-25T20:21:01.061Z,2.16
2022-11-25T20:23:44.255Z,2.15
2022-11-25T20:26:18.105Z,2.14
2022-11-25T20:28:46.541Z,2.12
2022-11-25T20:31:15.092Z,2.11
2022-11-25T20:33:43.374Z,2.09
2022-11-25T20:36:15.472Z,2.10
2022-11-25T20:38:53.002Z,2.15
2022-11-25T20:41:27.431Z,2.16
2022-11-25T20:43:57.924Z,2.15
2022-11-25T20:46:30.111Z,2.16
2022-11-25T20:49:01.890Z,2.19
2022-11-25T20:51:30.269Z,2.27
2022-11-25T20:54:02.968Z,2.33
2022-11-25T20:56:30.897Z,2.37
2022-11-25T20:58:58.920Z,2.41
2022-11-25T21:01:27.027Z,2.45
2022-11-25T21:03:54.909Z,2.52
2022-11-25T21:06:28.988Z,2.56
2022-11-25T21:08:59.802Z,2.57
2022-11-25T21:11:32.050Z,2.53
2022-11-25T21:14:00.093Z,2.52
2022-11-25T21:16:28.023Z,2.50
2022-11-25T21:18:55.895Z,2.48
2022-11-25T21:21:34.314Z,2.45
2022-11-25T21:24:37.113Z,2.46
2022-11-25T21:27:14.480Z,2.45
2022-11-25T21:29:45.063Z,2.46
2022-11-25T21:32:21.665Z,2.43
2022-11-25T21:34:50.202Z,2.49
2022-11-25T21:37:30.695Z,2.48
2022-11-25T21:39:59.358Z,2.50
2022-11-25T21:42:28.631Z,2.51
2022-11-25T21:44:56.725Z,2.53
2022-11-25T21:47:26.967Z,2.56
2022-11-25T21:49:55.364Z,2.53
2022-11-25T21:52:23.190Z,2.53
2022-11-25T21:54:50.977Z,2.55
2022-11-25T21:57:26.987Z,2.53
2022-11-25T21:59:55.048Z,2.58
2022-11-25T22:02:24.754Z,2.59
2022-11-25T22:04:52.792Z,2.59
2022-11-25T22:07:20.747Z,2.56
2022-11-25T22:09:48.620Z,2.55
2022-11-25T22:12:29.610Z,2.56
2022-11-25T22:14:59.508Z,2.57
2022-11-25T22:17:29.314Z,2.56
2022-11-25T22:19:57.223Z,2.56
2022-11-25T22:22:25.068Z,2.54
2022-11-25T22:24:52.848Z,2.57
2022-11-25T22:27:24.680Z,2.59
2022-11-25T22:29:53.116Z,2.56
2022-11-25T22:32:20.951Z,2.55
2022-11-25T22:34:48.852Z,2.55
2022-11-25T22:37:18.023Z,2.56
2022-11-25T22:39:46.280Z,2.59
2022-11-25T22:42:18.659Z,2.61
2022-11-25T22:44:49.451Z,2.57
2022-11-25T22:47:27.105Z,2.55
2022-11-25T22:49:55.134Z,2.60
2022-11-25T22:52:34.544Z,2.59
2022-11-25T22:55:14.772Z,2.62
2022-11-25T22:57:42.853Z,2.64
2022-11-25T23:00:16.684Z,2.64
2022-11-25T23:02:45.129Z,2.64
2022-11-25T23:05:17.944Z,2.64
2022-11-25T23:07:45.982Z,2.66
2022-11-25T23:10:16.442Z,2.68
2022-11-25T23:12:44.904Z,2.70
2022-11-25T23:15:18.179Z,2.70
2022-11-25T23:17:58.048Z,2.71
2022-11-25T23:20:36.357Z,2.75
2022-11-25T23:23:17.995Z,2.79
2022-11-25T23:25:46.771Z,2.78
2022-11-25T23:28:15.112Z,2.72
2022-11-25T23:30:49.774Z,2.67
2022-11-25T23:33:33.180Z,2.68
2022-11-25T23:36:06.182Z,2.65
2022-11-25T23:38:50.209Z,2.73
2022-11-25T23:41:30.677Z,2.72
2022-11-25T23:44:11.256Z,2.71
2022-11-25T23:46:40.726Z,2.70
2022-11-25T23:49:26.233Z,2.69
2022-11-25T23:52:06.059Z,2.69
2022-11-25T23:54:45.444Z,2.69
2022-11-25T23:57:22.183Z,2.68
2022-11-25T23:59:51.577Z,2.68
